sensor_id;sensor_type;location;lat;lon;timestamp;temperature;humidity
72380;SHT30;60354;47.798;12.472;2023-07-22T00:00:47;17.71;72.80
72380;SHT30;60354;47.798;12.472;2023-07-22T00:03:12;17.60;73.04
72380;SHT30;60354;47.798;12.472;2023-07-22T00:05:39;17.63;73.79
72380;SHT30;60354;47.798;12.472;2023-07-22T00:08:05;17.64;72.69
72380;SHT30;60354;47.798;12.472;2023-07-22T00:10:31;17.63;72.70
72380;SHT30;60354;47.798;12.472;2023-07-22T00:12:56;17.51;72.58
72380;SHT30;60354;47.798;12.472;2023-07-22T00:15:22;17.38;72.01
72380;SHT30;60354;47.798;12.472;2023-07-22T00:17:49;17.22;72.63
72380;SHT30;60354;47.798;12.472;2023-07-22T00:20:14;17.17;72.93
72380;SHT30;60354;47.798;12.472;2023-07-22T00:22:41;17.15;73.73
72380;SHT30;60354;47.798;12.472;2023-07-22T00:25:07;17.10;73.95
72380;SHT30;60354;47.798;12.472;2023-07-22T00:27:39;17.07;73.46
72380;SHT30;60354;47.798;12.472;2023-07-22T00:30:06;17.09;74.36
72380;SHT30;60354;47.798;12.472;2023-07-22T00:32:32;17.10;74.40
72380;SHT30;60354;47.798;12.472;2023-07-22T00:34:58;17.09;73.82
72380;SHT30;60354;47.798;12.472;2023-07-22T00:37:24;17.10;74.02
72380;SHT30;60354;47.798;12.472;2023-07-22T00:39:50;17.16;74.08
72380;SHT30;60354;47.798;12.472;2023-07-22T00:42:16;17.22;74.57
72380;SHT30;60354;47.798;12.472;2023-07-22T00:44:41;17.26;74.39
72380;SHT30;60354;47.798;12.472;2023-07-22T00:47:07;17.31;74.11
72380;SHT30;60354;47.798;12.472;2023-07-22T00:49:34;17.30;74.34
72380;SHT30;60354;47.798;12.472;2023-07-22T00:52:01;17.34;74.22
72380;SHT30;60354;47.798;12.472;2023-07-22T00:54:28;17.40;74.55
72380;SHT30;60354;47.798;12.472;2023-07-22T00:56:54;17.43;74.45
72380;SHT30;60354;47.798;12.472;2023-07-22T00:59:20;17.47;74.47
72380;SHT30;60354;47.798;12.472;2023-07-22T01:01:46;17.46;73.95
72380;SHT30;60354;47.798;12.472;2023-07-22T01:04:13;17.43;74.32
72380;SHT30;60354;47.798;12.472;2023-07-22T01:06:39;17.44;74.40
72380;SHT30;60354;47.798;12.472;2023-07-22T01:09:05;17.48;74.33
72380;SHT30;60354;47.798;12.472;2023-07-22T01:11:32;17.51;73.91
72380;SHT30;60354;47.798;12.472;2023-07-22T01:13:58;17.53;73.92
72380;SHT30;60354;47.798;12.472;2023-07-22T01:16:26;17.58;74.65
72380;SHT30;60354;47.798;12.472;2023-07-22T01:18:53;17.58;74.26
72380;SHT30;60354;47.798;12.472;2023-07-22T01:21:19;17.51;74.46
72380;SHT30;60354;47.798;12.472;2023-07-22T01:23:46;17.48;74.67
72380;SHT30;60354;47.798;12.472;2023-07-22T01:26:12;17.44;75.14
72380;SHT30;60354;47.798;12.472;2023-07-22T01:28:38;17.41;75.74
72380;SHT30;60354;47.798;12.472;2023-07-22T01:31:03;17.38;75.45
72380;SHT30;60354;47.798;12.472;2023-07-22T01:33:31;17.46;75.29
72380;SHT30;60354;47.798;12.472;2023-07-22T01:35:57;17.40;75.32
72380;SHT30;60354;47.798;12.472;2023-07-22T01:38:22;17.37;75.75
72380;SHT30;60354;47.798;12.472;2023-07-22T01:40:48;17.23;75.50
72380;SHT30;60354;47.798;12.472;2023-07-22T01:43:13;17.19;75.97
72380;SHT30;60354;47.798;12.472;2023-07-22T01:45:39;17.19;76.04
72380;SHT30;60354;47.798;12.472;2023-07-22T01:48:05;17.16;76.07
72380;SHT30;60354;47.798;12.472;2023-07-22T01:50:32;17.09;76.66
72380;SHT30;60354;47.798;12.472;2023-07-22T01:52:57;17.23;76.04
72380;SHT30;60354;47.798;12.472;2023-07-22T01:55:23;17.13;77.07
72380;SHT30;60354;47.798;12.472;2023-07-22T01:57:48;17.19;77.21
72380;SHT30;60354;47.798;12.472;2023-07-22T02:00:14;16.97;77.87
72380;SHT30;60354;47.798;12.472;2023-07-22T02:02:41;16.82;78.38
72380;SHT30;60354;47.798;12.472;2023-07-22T02:05:07;16.76;78.66
72380;SHT30;60354;47.798;12.472;2023-07-22T02:07:34;16.80;78.62
72380;SHT30;60354;47.798;12.472;2023-07-22T02:10:00;16.85;78.71
72380;SHT30;60354;47.798;12.472;2023-07-22T02:12:25;16.92;78.63
72380;SHT30;60354;47.798;12.472;2023-07-22T02:14:51;16.90;78.84
72380;SHT30;60354;47.798;12.472;2023-07-22T02:17:16;16.87;78.72
72380;SHT30;60354;47.798;12.472;2023-07-22T02:19:42;16.89;79.02
72380;SHT30;60354;47.798;12.472;2023-07-22T02:22:09;16.86;79.47
72380;SHT30;60354;47.798;12.472;2023-07-22T02:24:34;16.89;78.61
72380;SHT30;60354;47.798;12.472;2023-07-22T02:27:00;16.64;80.02
72380;SHT30;60354;47.798;12.472;2023-07-22T02:29:26;16.59;79.88
72380;SHT30;60354;47.798;12.472;2023-07-22T02:31:51;16.58;79.96
72380;SHT30;60354;47.798;12.472;2023-07-22T02:34:17;16.52;80.13
72380;SHT30;60354;47.798;12.472;2023-07-22T02:36:42;16.49;80.81
72380;SHT30;60354;47.798;12.472;2023-07-22T02:39:08;16.54;80.48
72380;SHT30;60354;47.798;12.472;2023-07-22T02:41:36;16.55;80.69
72380;SHT30;60354;47.798;12.472;2023-07-22T02:44:02;16.62;80.70
72380;SHT30;60354;47.798;12.472;2023-07-22T02:46:28;16.69;80.57
72380;SHT30;60354;47.798;12.472;2023-07-22T02:48:54;16.56;81.15
72380;SHT30;60354;47.798;12.472;2023-07-22T02:51:20;16.55;81.09
72380;SHT30;60354;47.798;12.472;2023-07-22T02:53:46;16.61;81.36
72380;SHT30;60354;47.798;12.472;2023-07-22T02:56:12;16.73;80.65
72380;SHT30;60354;47.798;12.472;2023-07-22T02:58:38;16.79;80.42
72380;SHT30;60354;47.798;12.472;2023-07-22T03:01:04;16.76;81.17
72380;SHT30;60354;47.798;12.472;2023-07-22T03:03:30;16.62;81.85
72380;SHT30;60354;47.798;12.472;2023-07-22T03:05:59;16.65;82.20
72380;SHT30;60354;47.798;12.472;2023-07-22T03:08:25;16.73;81.57
72380;SHT30;60354;47.798;12.472;2023-07-22T03:10:51;16.72;81.53
72380;SHT30;60354;47.798;12.472;2023-07-22T03:13:19;16.72;81.77
72380;SHT30;60354;47.798;12.472;2023-07-22T03:15:44;16.73;81.32
72380;SHT30;60354;47.798;12.472;2023-07-22T03:18:11;16.73;81.43
72380;SHT30;60354;47.798;12.472;2023-07-22T03:20:37;16.75;81.73
72380;SHT30;60354;47.798;12.472;2023-07-22T03:23:04;16.61;82.14
72380;SHT30;60354;47.798;12.472;2023-07-22T03:25:29;16.64;81.27
72380;SHT30;60354;47.798;12.472;2023-07-22T03:27:55;16.62;81.54
72380;SHT30;60354;47.798;12.472;2023-07-22T03:30:22;16.49;82.33
72380;SHT30;60354;47.798;12.472;2023-07-22T03:32:48;16.51;82.00
72380;SHT30;60354;47.798;12.472;2023-07-22T03:35:16;16.51;82.57
72380;SHT30;60354;47.798;12.472;2023-07-22T03:37:42;16.49;82.90
72380;SHT30;60354;47.798;12.472;2023-07-22T03:40:09;16.55;81.69
72380;SHT30;60354;47.798;12.472;2023-07-22T03:42:56;16.62;82.13
72380;SHT30;60354;47.798;12.472;2023-07-22T03:45:23;16.68;82.14
72380;SHT30;60354;47.798;12.472;2023-07-22T03:47:56;16.65;82.56
72380;SHT30;60354;47.798;12.472;2023-07-22T03:50:21;16.66;82.16
72380;SHT30;60354;47.798;12.472;2023-07-22T03:52:47;16.61;82.95
72380;SHT30;60354;47.798;12.472;2023-07-22T03:55:12;16.71;82.99
72380;SHT30;60354;47.798;12.472;2023-07-22T03:57:38;16.73;83.53
72380;SHT30;60354;47.798;12.472;2023-07-22T04:00:05;16.76;83.63
72380;SHT30;60354;47.798;12.472;2023-07-22T04:02:37;16.78;83.92
72380;SHT30;60354;47.798;12.472;2023-07-22T04:05:03;16.83;83.72
72380;SHT30;60354;47.798;12.472;2023-07-22T04:07:28;16.89;83.48
72380;SHT30;60354;47.798;12.472;2023-07-22T04:09:54;16.76;84.41
72380;SHT30;60354;47.798;12.472;2023-07-22T04:12:20;16.76;83.76
72380;SHT30;60354;47.798;12.472;2023-07-22T04:14:45;16.75;84.15
72380;SHT30;60354;47.798;12.472;2023-07-22T04:17:11;16.73;84.17
72380;SHT30;60354;47.798;12.472;2023-07-22T04:19:37;16.80;84.24
72380;SHT30;60354;47.798;12.472;2023-07-22T04:22:04;16.80;84.13
72380;SHT30;60354;47.798;12.472;2023-07-22T04:24:30;16.83;83.63
72380;SHT30;60354;47.798;12.472;2023-07-22T04:26:57;16.86;83.26
72380;SHT30;60354;47.798;12.472;2023-07-22T04:29:25;16.85;84.60
72380;SHT30;60354;47.798;12.472;2023-07-22T04:31:51;16.85;84.31
72380;SHT30;60354;47.798;12.472;2023-07-22T04:34:16;16.82;84.83
72380;SHT30;60354;47.798;12.472;2023-07-22T04:36:41;16.73;84.70
72380;SHT30;60354;47.798;12.472;2023-07-22T04:39:08;16.80;84.56
72380;SHT30;60354;47.798;12.472;2023-07-22T04:41:34;16.86;84.26
72380;SHT30;60354;47.798;12.472;2023-07-22T04:43:59;16.92;83.84
72380;SHT30;60354;47.798;12.472;2023-07-22T04:46:25;17.00;83.40
72380;SHT30;60354;47.798;12.472;2023-07-22T04:48:56;16.96;83.35
72380;SHT30;60354;47.798;12.472;2023-07-22T04:51:23;17.02;83.38
72380;SHT30;60354;47.798;12.472;2023-07-22T04:53:49;17.07;83.44
72380;SHT30;60354;47.798;12.472;2023-07-22T04:56:14;17.05;83.71
72380;SHT30;60354;47.798;12.472;2023-07-22T04:58:39;17.03;83.72
72380;SHT30;60354;47.798;12.472;2023-07-22T05:01:05;17.05;83.76
72380;SHT30;60354;47.798;12.472;2023-07-22T05:03:30;17.09;83.45
72380;SHT30;60354;47.798;12.472;2023-07-22T05:05:59;17.10;83.81
72380;SHT30;60354;47.798;12.472;2023-07-22T05:08:25;17.16;83.92
72380;SHT30;60354;47.798;12.472;2023-07-22T05:10:50;17.16;83.73
72380;SHT30;60354;47.798;12.472;2023-07-22T05:13:16;17.17;83.29
72380;SHT30;60354;47.798;12.472;2023-07-22T05:15:42;17.23;83.32
72380;SHT30;60354;47.798;12.472;2023-07-22T05:18:07;17.15;83.41
72380;SHT30;60354;47.798;12.472;2023-07-22T05:20:33;17.22;84.00
72380;SHT30;60354;47.798;12.472;2023-07-22T05:22:58;17.23;84.30
72380;SHT30;60354;47.798;12.472;2023-07-22T05:25:24;17.09;84.97
72380;SHT30;60354;47.798;12.472;2023-07-22T05:27:49;17.20;84.97
72380;SHT30;60354;47.798;12.472;2023-07-22T05:30:15;17.28;85.27
72380;SHT30;60354;47.798;12.472;2023-07-22T05:32:40;17.24;83.28
72380;SHT30;60354;47.798;12.472;2023-07-22T05:35:06;17.30;83.07
72380;SHT30;60354;47.798;12.472;2023-07-22T05:37:31;17.55;83.43
72380;SHT30;60354;47.798;12.472;2023-07-22T05:39:57;17.78;82.78
72380;SHT30;60354;47.798;12.472;2023-07-22T05:42:23;17.66;82.54
72380;SHT30;60354;47.798;12.472;2023-07-22T05:44:48;17.77;81.71
72380;SHT30;60354;47.798;12.472;2023-07-22T05:47:14;18.21;80.00
72380;SHT30;60354;47.798;12.472;2023-07-22T05:49:40;18.66;79.63
72380;SHT30;60354;47.798;12.472;2023-07-22T05:52:05;18.91;77.88
72380;SHT30;60354;47.798;12.472;2023-07-22T05:54:31;19.00;78.44
72380;SHT30;60354;47.798;12.472;2023-07-22T05:56:57;18.67;78.23
72380;SHT30;60354;47.798;12.472;2023-07-22T05:59:22;18.39;78.77
72380;SHT30;60354;47.798;12.472;2023-07-22T06:01:48;18.52;77.69
72380;SHT30;60354;47.798;12.472;2023-07-22T06:04:13;18.37;77.94
72380;SHT30;60354;47.798;12.472;2023-07-22T06:06:39;18.36;78.67
72380;SHT30;60354;47.798;12.472;2023-07-22T06:09:07;18.35;79.44
72380;SHT30;60354;47.798;12.472;2023-07-22T06:11:32;18.37;79.42
72380;SHT30;60354;47.798;12.472;2023-07-22T06:13:58;18.37;79.24
72380;SHT30;60354;47.798;12.472;2023-07-22T06:16:23;18.42;78.45
72380;SHT30;60354;47.798;12.472;2023-07-22T06:18:49;18.47;78.86
72380;SHT30;60354;47.798;12.472;2023-07-22T06:21:14;18.50;77.86
72380;SHT30;60354;47.798;12.472;2023-07-22T06:23:41;18.55;77.94
72380;SHT30;60354;47.798;12.472;2023-07-22T06:26:06;18.50;78.52
72380;SHT30;60354;47.798;12.472;2023-07-22T06:28:32;18.52;78.60
72380;SHT30;60354;47.798;12.472;2023-07-22T06:30:57;19.00;77.02
72380;SHT30;60354;47.798;12.472;2023-07-22T06:33:23;18.93;76.03
72380;SHT30;60354;47.798;12.472;2023-07-22T06:35:48;19.25;75.22
72380;SHT30;60354;47.798;12.472;2023-07-22T06:38:14;19.44;75.14
72380;SHT30;60354;47.798;12.472;2023-07-22T06:40:40;19.24;73.60
72380;SHT30;60354;47.798;12.472;2023-07-22T06:43:05;19.14;73.86
72380;SHT30;60354;47.798;12.472;2023-07-22T06:45:31;19.19;74.23
72380;SHT30;60354;47.798;12.472;2023-07-22T06:47:57;19.17;72.48
72380;SHT30;60354;47.798;12.472;2023-07-22T06:50:22;19.21;73.41
72380;SHT30;60354;47.798;12.472;2023-07-22T06:52:48;19.38;72.41
72380;SHT30;60354;47.798;12.472;2023-07-22T06:55:14;19.46;72.36
72380;SHT30;60354;47.798;12.472;2023-07-22T06:57:40;19.42;72.36
72380;SHT30;60354;47.798;12.472;2023-07-22T07:00:06;19.38;72.80
72380;SHT30;60354;47.798;12.472;2023-07-22T07:02:31;19.42;72.29
72380;SHT30;60354;47.798;12.472;2023-07-22T07:04:57;19.82;71.37
72380;SHT30;60354;47.798;12.472;2023-07-22T07:07:23;20.12;70.27
72380;SHT30;60354;47.798;12.472;2023-07-22T07:09:48;20.00;69.78
72380;SHT30;60354;47.798;12.472;2023-07-22T07:12:13;20.52;69.13
72380;SHT30;60354;47.798;12.472;2023-07-22T07:14:39;20.67;68.64
72380;SHT30;60354;47.798;12.472;2023-07-22T07:17:05;21.05;68.05
72380;SHT30;60354;47.798;12.472;2023-07-22T07:19:30;20.95;67.63
72380;SHT30;60354;47.798;12.472;2023-07-22T07:21:56;21.25;67.12
72380;SHT30;60354;47.798;12.472;2023-07-22T07:24:21;21.56;67.43
72380;SHT30;60354;47.798;12.472;2023-07-22T07:26:46;21.84;66.67
72380;SHT30;60354;47.798;12.472;2023-07-22T07:29:12;21.98;65.09
72380;SHT30;60354;47.798;12.472;2023-07-22T07:31:38;21.90;64.75
72380;SHT30;60354;47.798;12.472;2023-07-22T07:34:04;22.39;62.97
72380;SHT30;60354;47.798;12.472;2023-07-22T07:36:29;22.60;62.10
72380;SHT30;60354;47.798;12.472;2023-07-22T07:38:55;22.42;63.39
72380;SHT30;60354;47.798;12.472;2023-07-22T07:41:20;22.32;62.35
72380;SHT30;60354;47.798;12.472;2023-07-22T07:43:46;22.63;62.06
72380;SHT30;60354;47.798;12.472;2023-07-22T07:48:44;22.69;62.07
72380;SHT30;60354;47.798;12.472;2023-07-22T07:51:12;22.70;61.37
72380;SHT30;60354;47.798;12.472;2023-07-22T07:53:37;22.14;63.22
72380;SHT30;60354;47.798;12.472;2023-07-22T07:56:03;21.58;64.45
72380;SHT30;60354;47.798;12.472;2023-07-22T07:58:28;21.61;64.96
72380;SHT30;60354;47.798;12.472;2023-07-22T08:00:54;21.77;65.17
72380;SHT30;60354;47.798;12.472;2023-07-22T08:03:19;21.80;63.92
72380;SHT30;60354;47.798;12.472;2023-07-22T08:05:46;22.45;63.97
72380;SHT30;60354;47.798;12.472;2023-07-22T08:08:11;22.22;64.84
72380;SHT30;60354;47.798;12.472;2023-07-22T08:10:37;22.12;63.46
72380;SHT30;60354;47.798;12.472;2023-07-22T08:13:02;22.72;62.07
72380;SHT30;60354;47.798;12.472;2023-07-22T08:15:28;23.14;60.91
72380;SHT30;60354;47.798;12.472;2023-07-22T08:17:53;23.33;61.64
72380;SHT30;60354;47.798;12.472;2023-07-22T08:20:19;23.79;59.03
72380;SHT30;60354;47.798;12.472;2023-07-22T08:22:44;23.23;59.70
72380;SHT30;60354;47.798;12.472;2023-07-22T08:25:10;22.77;61.06
72380;SHT30;60354;47.798;12.472;2023-07-22T08:27:35;22.56;60.35
72380;SHT30;60354;47.798;12.472;2023-07-22T08:30:01;22.31;62.31
72380;SHT30;60354;47.798;12.472;2023-07-22T08:32:26;22.32;62.27
72380;SHT30;60354;47.798;12.472;2023-07-22T08:34:52;22.21;63.11
72380;SHT30;60354;47.798;12.472;2023-07-22T08:37:17;22.55;62.35
72380;SHT30;60354;47.798;12.472;2023-07-22T08:39:42;22.82;61.45
72380;SHT30;60354;47.798;12.472;2023-07-22T08:42:08;22.82;63.10
72380;SHT30;60354;47.798;12.472;2023-07-22T08:44:38;22.55;61.74
72380;SHT30;60354;47.798;12.472;2023-07-22T08:47:04;22.68;62.00
72380;SHT30;60354;47.798;12.472;2023-07-22T08:49:34;22.35;62.26
72380;SHT30;60354;47.798;12.472;2023-07-22T08:52:00;22.01;63.69
72380;SHT30;60354;47.798;12.472;2023-07-22T08:54:26;21.80;63.63
72380;SHT30;60354;47.798;12.472;2023-07-22T08:56:53;22.07;63.19
72380;SHT30;60354;47.798;12.472;2023-07-22T08:59:19;22.14;64.55
72380;SHT30;60354;47.798;12.472;2023-07-22T09:01:48;22.60;62.16
72380;SHT30;60354;47.798;12.472;2023-07-22T09:04:13;22.32;63.20
72380;SHT30;60354;47.798;12.472;2023-07-22T09:06:41;22.15;64.49
72380;SHT30;60354;47.798;12.472;2023-07-22T09:09:08;22.24;64.62
72380;SHT30;60354;47.798;12.472;2023-07-22T09:11:34;22.29;63.82
72380;SHT30;60354;47.798;12.472;2023-07-22T09:14:02;22.53;63.34
72380;SHT30;60354;47.798;12.472;2023-07-22T09:16:28;22.42;63.31
72380;SHT30;60354;47.798;12.472;2023-07-22T09:18:57;22.58;63.22
72380;SHT30;60354;47.798;12.472;2023-07-22T09:21:22;22.90;61.63
72380;SHT30;60354;47.798;12.472;2023-07-22T09:23:48;22.85;62.26
72380;SHT30;60354;47.798;12.472;2023-07-22T09:26:17;22.99;61.48
72380;SHT30;60354;47.798;12.472;2023-07-22T09:28:57;23.17;60.83
72380;SHT30;60354;47.798;12.472;2023-07-22T09:31:25;23.16;60.10
72380;SHT30;60354;47.798;12.472;2023-07-22T09:33:52;23.55;60.84
72380;SHT30;60354;47.798;12.472;2023-07-22T09:36:20;23.46;60.53
72380;SHT30;60354;47.798;12.472;2023-07-22T09:38:47;23.92;58.99
72380;SHT30;60354;47.798;12.472;2023-07-22T09:41:27;24.02;58.00
72380;SHT30;60354;47.798;12.472;2023-07-22T09:43:53;23.71;57.51
72380;SHT30;60354;47.798;12.472;2023-07-22T09:46:18;23.62;59.25
72380;SHT30;60354;47.798;12.472;2023-07-22T09:48:44;23.23;59.05
72380;SHT30;60354;47.798;12.472;2023-07-22T09:51:14;23.51;59.77
72380;SHT30;60354;47.798;12.472;2023-07-22T09:53:59;23.07;59.41
72380;SHT30;60354;47.798;12.472;2023-07-22T09:56:25;23.16;60.29
72380;SHT30;60354;47.798;12.472;2023-07-22T09:58:51;23.04;59.34
72380;SHT30;60354;47.798;12.472;2023-07-22T10:01:19;23.14;59.18
72380;SHT30;60354;47.798;12.472;2023-07-22T10:03:45;23.21;59.07
72380;SHT30;60354;47.798;12.472;2023-07-22T10:06:13;23.33;57.75
72380;SHT30;60354;47.798;12.472;2023-07-22T10:08:42;23.34;58.84
72380;SHT30;60354;47.798;12.472;2023-07-22T10:11:11;23.47;58.11
72380;SHT30;60354;47.798;12.472;2023-07-22T10:13:38;23.51;58.98
72380;SHT30;60354;47.798;12.472;2023-07-22T10:16:04;23.69;56.80
72380;SHT30;60354;47.798;12.472;2023-07-22T10:18:32;23.71;56.56
72380;SHT30;60354;47.798;12.472;2023-07-22T10:20:57;23.46;56.62
72380;SHT30;60354;47.798;12.472;2023-07-22T10:23:25;23.68;57.23
72380;SHT30;60354;47.798;12.472;2023-07-22T10:25:52;23.61;56.23
72380;SHT30;60354;47.798;12.472;2023-07-22T10:28:19;23.67;57.12
72380;SHT30;60354;47.798;12.472;2023-07-22T10:30:52;23.68;57.08
72380;SHT30;60354;47.798;12.472;2023-07-22T10:33:18;23.74;57.82
72380;SHT30;60354;47.798;12.472;2023-07-22T10:36:02;23.11;58.87
72380;SHT30;60354;47.798;12.472;2023-07-22T10:38:28;23.08;58.79
72380;SHT30;60354;47.798;12.472;2023-07-22T10:40:55;22.99;58.04
72380;SHT30;60354;47.798;12.472;2023-07-22T10:43:39;23.20;57.69
72380;SHT30;60354;47.798;12.472;2023-07-22T10:46:09;23.47;57.00
72380;SHT30;60354;47.798;12.472;2023-07-22T10:48:37;23.64;58.92
72380;SHT30;60354;47.798;12.472;2023-07-22T10:51:09;23.67;56.47
72380;SHT30;60354;47.798;12.472;2023-07-22T10:53:49;23.40;56.36
72380;SHT30;60354;47.798;12.472;2023-07-22T10:56:20;23.40;55.96
72380;SHT30;60354;47.798;12.472;2023-07-22T11:14:23;23.44;57.62
72380;SHT30;60354;47.798;12.472;2023-07-22T11:16:50;23.51;57.19
72380;SHT30;60354;47.798;12.472;2023-07-22T11:19:17;23.67;57.86
72380;SHT30;60354;47.798;12.472;2023-07-22T11:21:44;23.65;56.82
72380;SHT30;60354;47.798;12.472;2023-07-22T11:24:10;23.23;55.83
72380;SHT30;60354;47.798;12.472;2023-07-22T11:26:37;23.13;57.73
72380;SHT30;60354;47.798;12.472;2023-07-22T11:29:03;23.30;58.74
72380;SHT30;60354;47.798;12.472;2023-07-22T11:31:33;23.48;56.84
72380;SHT30;60354;47.798;12.472;2023-07-22T11:33:59;23.54;55.78
72380;SHT30;60354;47.798;12.472;2023-07-22T11:36:26;23.36;56.14
72380;SHT30;60354;47.798;12.472;2023-07-22T11:38:52;23.79;56.19
72380;SHT30;60354;47.798;12.472;2023-07-22T11:41:18;23.82;56.77
72380;SHT30;60354;47.798;12.472;2023-07-22T11:43:43;23.85;57.23
72380;SHT30;60354;47.798;12.472;2023-07-22T11:46:09;23.75;58.35
72380;SHT30;60354;47.798;12.472;2023-07-22T11:48:35;23.38;57.63
72380;SHT30;60354;47.798;12.472;2023-07-22T11:51:01;23.21;59.15
72380;SHT30;60354;47.798;12.472;2023-07-22T11:53:27;23.38;59.02
72380;SHT30;60354;47.798;12.472;2023-07-22T11:55:55;23.55;57.27
72380;SHT30;60354;47.798;12.472;2023-07-22T11:58:25;23.48;57.01
72380;SHT30;60354;47.798;12.472;2023-07-22T12:01:09;23.46;58.83
72380;SHT30;60354;47.798;12.472;2023-07-22T12:03:35;23.40;57.92
72380;SHT30;60354;47.798;12.472;2023-07-22T12:06:05;23.58;56.64
72380;SHT30;60354;47.798;12.472;2023-07-22T12:08:31;23.69;56.72
72380;SHT30;60354;47.798;12.472;2023-07-22T12:11:00;23.99;55.20
72380;SHT30;60354;47.798;12.472;2023-07-22T12:13:25;24.30;55.28
72380;SHT30;60354;47.798;12.472;2023-07-22T12:18:26;24.35;54.20
72380;SHT30;60354;47.798;12.472;2023-07-22T12:20:52;24.64;54.29
72380;SHT30;60354;47.798;12.472;2023-07-22T12:23:17;24.63;53.62
72380;SHT30;60354;47.798;12.472;2023-07-22T12:25:43;24.61;53.55
72380;SHT30;60354;47.798;12.472;2023-07-22T12:28:09;24.59;52.97
72380;SHT30;60354;47.798;12.472;2023-07-22T12:30:36;24.49;53.34
72380;SHT30;60354;47.798;12.472;2023-07-22T12:33:02;24.29;56.44
72380;SHT30;60354;47.798;12.472;2023-07-22T12:35:28;23.86;56.24
72380;SHT30;60354;47.798;12.472;2023-07-22T12:37:53;23.89;56.13
72380;SHT30;60354;47.798;12.472;2023-07-22T12:40:19;24.02;54.83
72380;SHT30;60354;47.798;12.472;2023-07-22T12:42:44;23.89;54.04
72380;SHT30;60354;47.798;12.472;2023-07-22T12:45:12;24.13;53.03
72380;SHT30;60354;47.798;12.472;2023-07-22T12:47:38;24.32;51.83
72380;SHT30;60354;47.798;12.472;2023-07-22T12:50:05;24.46;52.74
72380;SHT30;60354;47.798;12.472;2023-07-22T12:52:32;24.66;53.09
72380;SHT30;60354;47.798;12.472;2023-07-22T12:55:01;24.90;53.66
72380;SHT30;60354;47.798;12.472;2023-07-22T12:57:27;24.92;54.53
72380;SHT30;60354;47.798;12.472;2023-07-22T12:59:53;24.76;52.90
72380;SHT30;60354;47.798;12.472;2023-07-22T13:02:18;24.83;52.39
72380;SHT30;60354;47.798;12.472;2023-07-22T13:04:44;24.84;52.09
72380;SHT30;60354;47.798;12.472;2023-07-22T13:07:09;24.49;51.89
72380;SHT30;60354;47.798;12.472;2023-07-22T13:09:35;24.56;50.75
72380;SHT30;60354;47.798;12.472;2023-07-22T13:12:00;24.61;50.20
72380;SHT30;60354;47.798;12.472;2023-07-22T13:14:26;24.71;50.03
72380;SHT30;60354;47.798;12.472;2023-07-22T13:16:51;24.56;50.63
72380;SHT30;60354;47.798;12.472;2023-07-22T13:19:16;24.70;53.18
72380;SHT30;60354;47.798;12.472;2023-07-22T13:21:42;24.52;52.36
72380;SHT30;60354;47.798;12.472;2023-07-22T13:24:07;24.52;51.82
72380;SHT30;60354;47.798;12.472;2023-07-22T13:26:34;24.44;50.38
72380;SHT30;60354;47.798;12.472;2023-07-22T13:29:00;24.46;51.49
72380;SHT30;60354;47.798;12.472;2023-07-22T13:31:25;24.19;52.33
72380;SHT30;60354;47.798;12.472;2023-07-22T13:33:51;24.06;53.58
72380;SHT30;60354;47.798;12.472;2023-07-22T13:36:16;24.05;53.91
72380;SHT30;60354;47.798;12.472;2023-07-22T13:38:41;24.23;52.43
72380;SHT30;60354;47.798;12.472;2023-07-22T13:41:07;24.40;50.85
72380;SHT30;60354;47.798;12.472;2023-07-22T13:43:33;24.26;52.08
72380;SHT30;60354;47.798;12.472;2023-07-22T13:45:58;24.41;54.64
72380;SHT30;60354;47.798;12.472;2023-07-22T13:48:24;24.39;52.93
72380;SHT30;60354;47.798;12.472;2023-07-22T13:50:49;24.41;52.36
72380;SHT30;60354;47.798;12.472;2023-07-22T13:53:15;24.27;52.17
72380;SHT30;60354;47.798;12.472;2023-07-22T13:55:40;24.43;52.54
72380;SHT30;60354;47.798;12.472;2023-07-22T13:58:06;24.33;52.07
72380;SHT30;60354;47.798;12.472;2023-07-22T14:00:31;24.47;52.30
72380;SHT30;60354;47.798;12.472;2023-07-22T14:02:57;24.47;52.55
72380;SHT30;60354;47.798;12.472;2023-07-22T14:05:22;24.49;52.96
72380;SHT30;60354;47.798;12.472;2023-07-22T14:07:48;24.10;51.39
72380;SHT30;60354;47.798;12.472;2023-07-22T14:10:13;23.78;53.14
72380;SHT30;60354;47.798;12.472;2023-07-22T14:12:39;23.69;54.63
72380;SHT30;60354;47.798;12.472;2023-07-22T14:15:05;23.94;54.84
72380;SHT30;60354;47.798;12.472;2023-07-22T14:17:31;24.10;54.32
72380;SHT30;60354;47.798;12.472;2023-07-22T14:19:59;24.17;53.88
72380;SHT30;60354;47.798;12.472;2023-07-22T14:22:25;24.10;52.62
72380;SHT30;60354;47.798;12.472;2023-07-22T14:24:50;23.89;52.93
72380;SHT30;60354;47.798;12.472;2023-07-22T14:27:16;24.01;54.55
72380;SHT30;60354;47.798;12.472;2023-07-22T14:29:41;24.17;53.51
72380;SHT30;60354;47.798;12.472;2023-07-22T14:32:07;23.90;52.78
72380;SHT30;60354;47.798;12.472;2023-07-22T14:34:34;24.16;53.73
72380;SHT30;60354;47.798;12.472;2023-07-22T14:37:00;24.25;52.57
72380;SHT30;60354;47.798;12.472;2023-07-22T14:39:25;24.26;53.84
72380;SHT30;60354;47.798;12.472;2023-07-22T14:41:50;24.29;52.85
72380;SHT30;60354;47.798;12.472;2023-07-22T14:44:16;24.17;53.60
72380;SHT30;60354;47.798;12.472;2023-07-22T14:46:41;24.12;53.11
72380;SHT30;60354;47.798;12.472;2023-07-22T14:49:07;24.33;53.62
72380;SHT30;60354;47.798;12.472;2023-07-22T14:51:35;24.30;52.13
72380;SHT30;60354;47.798;12.472;2023-07-22T14:54:00;24.47;52.49
72380;SHT30;60354;47.798;12.472;2023-07-22T14:56:26;24.36;52.58
72380;SHT30;60354;47.798;12.472;2023-07-22T14:58:51;24.25;51.61
72380;SHT30;60354;47.798;12.472;2023-07-22T15:01:17;24.39;53.05
72380;SHT30;60354;47.798;12.472;2023-07-22T15:03:42;24.30;51.64
72380;SHT30;60354;47.798;12.472;2023-07-22T15:06:08;24.43;52.58
72380;SHT30;60354;47.798;12.472;2023-07-22T15:08:33;24.29;52.16
72380;SHT30;60354;47.798;12.472;2023-07-22T15:10:59;24.39;51.80
72380;SHT30;60354;47.798;12.472;2023-07-22T15:13:24;24.47;52.18
72380;SHT30;60354;47.798;12.472;2023-07-22T15:15:52;24.46;51.68
72380;SHT30;60354;47.798;12.472;2023-07-22T15:18:18;24.56;51.38
72380;SHT30;60354;47.798;12.472;2023-07-22T15:20:43;24.43;52.01
72380;SHT30;60354;47.798;12.472;2023-07-22T15:23:09;24.37;52.14
72380;SHT30;60354;47.798;12.472;2023-07-22T15:25:34;24.17;52.50
72380;SHT30;60354;47.798;12.472;2023-07-22T15:28:00;24.27;53.11
72380;SHT30;60354;47.798;12.472;2023-07-22T15:30:25;24.36;55.36